sensor_id;sensor_type;location;lat;lon;timestamp;temperature;humidity
13970;DHT22;7057;49.984;8.404;2023-08-06T00:01:57;16.40;99.90
13970;DHT22;7057;49.984;8.404;2023-08-06T00:04:26;16.50;99.90
13970;DHT22;7057;49.984;8.404;2023-08-06T00:06:53;16.50;99.90
13970;DHT22;7057;49.984;8.404;2023-08-06T00:09:20;16.50;99.90
13970;DHT22;7057;49.984;8.404;2023-08-06T00:11:47;16.50;99.90
13970;DHT22;7057;49.984;8.404;2023-08-06T00:14:14;16.50;99.90
13970;DHT22;7057;49.984;8.404;2023-08-06T00:16:43;16.60;99.90
13970;DHT22;7057;49.984;8.404;2023-08-06T00:19:10;16.60;99.90
13970;DHT22;7057;49.984;8.404;2023-08-06T00:21:39;16.60;99.90
13970;DHT22;7057;49.984;8.404;2023-08-06T00:24:06;16.60;99.90
13970;DHT22;7057;49.984;8.404;2023-08-06T00:26:33;16.60;99.90
13970;DHT22;7057;49.984;8.404;2023-08-06T00:29:00;16.70;99.90
13970;DHT22;7057;49.984;8.404;2023-08-06T00:31:27;16.70;99.90
13970;DHT22;7057;49.984;8.404;2023-08-06T00:33:54;16.70;99.90
13970;DHT22;7057;49.984;8.404;2023-08-06T00:36:22;16.70;99.90
13970;DHT22;7057;49.984;8.404;2023-08-06T00:38:50;16.70;99.90
13970;DHT22;7057;49.984;8.404;2023-08-06T00:41:17;16.80;99.90
13970;DHT22;7057;49.984;8.404;2023-08-06T00:43:44;16.80;99.90
13970;DHT22;7057;49.984;8.404;2023-08-06T00:46:12;16.80;99.90
13970;DHT22;7057;49.984;8.404;2023-08-06T00:48:40;16.80;99.90
13970;DHT22;7057;49.984;8.404;2023-08-06T00:51:09;16.80;99.90
13970;DHT22;7057;49.984;8.404;2023-08-06T00:53:37;16.70;99.90
13970;DHT22;7057;49.984;8.404;2023-08-06T00:56:06;16.70;99.90
13970;DHT22;7057;49.984;8.404;2023-08-06T00:58:34;16.70;99.90
13970;DHT22;7057;49.984;8.404;2023-08-06T01:01:02;16.70;99.90
13970;DHT22;7057;49.984;8.404;2023-08-06T01:03:29;16.70;99.90
13970;DHT22;7057;49.984;8.404;2023-08-06T01:05:56;16.70;99.90
13970;DHT22;7057;49.984;8.404;2023-08-06T01:08:30;16.70;99.90
13970;DHT22;7057;49.984;8.404;2023-08-06T01:11:07;16.70;99.90
13970;DHT22;7057;49.984;8.404;2023-08-06T01:13:42;16.70;99.90
13970;DHT22;7057;49.984;8.404;2023-08-06T01:16:11;16.70;99.90
13970;DHT22;7057;49.984;8.404;2023-08-06T01:18:38;16.60;99.90
13970;DHT22;7057;49.984;8.404;2023-08-06T01:21:09;16.60;99.90
13970;DHT22;7057;49.984;8.404;2023-08-06T01:23:36;16.60;99.90
13970;DHT22;7057;49.984;8.404;2023-08-06T01:26:11;16.60;99.90
13970;DHT22;7057;49.984;8.404;2023-08-06T01:28:44;16.60;99.90
13970;DHT22;7057;49.984;8.404;2023-08-06T01:31:18;16.60;99.90
13970;DHT22;7057;49.984;8.404;2023-08-06T01:33:46;16.60;99.90
13970;DHT22;7057;49.984;8.404;2023-08-06T01:36:16;16.60;99.90
13970;DHT22;7057;49.984;8.404;2023-08-06T01:38:44;16.60;99.90
13970;DHT22;7057;49.984;8.404;2023-08-06T01:41:12;16.60;99.90
13970;DHT22;7057;49.984;8.404;2023-08-06T01:43:39;16.60;99.90
13970;DHT22;7057;49.984;8.404;2023-08-06T01:46:06;16.60;99.90
13970;DHT22;7057;49.984;8.404;2023-08-06T01:48:33;16.60;99.90
13970;DHT22;7057;49.984;8.404;2023-08-06T01:51:00;16.70;99.90
13970;DHT22;7057;49.984;8.404;2023-08-06T01:53:29;16.70;99.90
13970;DHT22;7057;49.984;8.404;2023-08-06T01:55:57;16.70;99.90
13970;DHT22;7057;49.984;8.404;2023-08-06T01:58:24;16.70;99.90
13970;DHT22;7057;49.984;8.404;2023-08-06T02:00:51;16.70;99.90
13970;DHT22;7057;49.984;8.404;2023-08-06T02:03:19;16.70;99.90
13970;DHT22;7057;49.984;8.404;2023-08-06T02:05:46;16.70;99.90
13970;DHT22;7057;49.984;8.404;2023-08-06T02:08:13;16.80;99.90
13970;DHT22;7057;49.984;8.404;2023-08-06T02:10:41;16.70;99.90
13970;DHT22;7057;49.984;8.404;2023-08-06T02:13:09;16.70;99.90
13970;DHT22;7057;49.984;8.404;2023-08-06T02:15:36;16.70;99.90
13970;DHT22;7057;49.984;8.404;2023-08-06T02:18:08;16.60;99.90
13970;DHT22;7057;49.984;8.404;2023-08-06T02:20:35;16.60;99.90
13970;DHT22;7057;49.984;8.404;2023-08-06T02:23:02;16.60;99.90
13970;DHT22;7057;49.984;8.404;2023-08-06T02:25:29;16.60;99.90
13970;DHT22;7057;49.984;8.404;2023-08-06T02:27:58;16.50;99.90
13970;DHT22;7057;49.984;8.404;2023-08-06T02:30:25;16.50;99.90
13970;DHT22;7057;49.984;8.404;2023-08-06T02:32:52;16.50;99.90
13970;DHT22;7057;49.984;8.404;2023-08-06T02:35:20;16.50;99.90
13970;DHT22;7057;49.984;8.404;2023-08-06T02:37:47;16.50;99.90
13970;DHT22;7057;49.984;8.404;2023-08-06T02:40:14;16.60;99.90
13970;DHT22;7057;49.984;8.404;2023-08-06T02:42:41;16.60;99.90
13970;DHT22;7057;49.984;8.404;2023-08-06T02:45:10;16.60;99.90
13970;DHT22;7057;49.984;8.404;2023-08-06T02:47:37;16.60;99.90
13970;DHT22;7057;49.984;8.404;2023-08-06T02:50:05;16.60;99.90
13970;DHT22;7057;49.984;8.404;2023-08-06T02:52:32;16.60;99.90
13970;DHT22;7057;49.984;8.404;2023-08-06T02:54:59;16.60;99.90
13970;DHT22;7057;49.984;8.404;2023-08-06T02:57:27;16.60;99.90
13970;DHT22;7057;49.984;8.404;2023-08-06T02:59:54;16.60;99.90
13970;DHT22;7057;49.984;8.404;2023-08-06T03:02:22;16.60;99.90
13970;DHT22;7057;49.984;8.404;2023-08-06T03:04:49;16.60;99.90
13970;DHT22;7057;49.984;8.404;2023-08-06T03:07:16;16.70;99.90
13970;DHT22;7057;49.984;8.404;2023-08-06T03:09:44;16.60;99.90
13970;DHT22;7057;49.984;8.404;2023-08-06T03:12:11;16.60;99.90
13970;DHT22;7057;49.984;8.404;2023-08-06T03:14:38;16.60;99.90
13970;DHT22;7057;49.984;8.404;2023-08-06T03:17:05;16.60;99.90
13970;DHT22;7057;49.984;8.404;2023-08-06T03:19:34;16.60;99.90
13970;DHT22;7057;49.984;8.404;2023-08-06T03:22:01;16.60;99.90
13970;DHT22;7057;49.984;8.404;2023-08-06T03:24:28;16.70;99.90
13970;DHT22;7057;49.984;8.404;2023-08-06T03:26:55;16.70;99.90
13970;DHT22;7057;49.984;8.404;2023-08-06T03:29:22;16.70;99.90
13970;DHT22;7057;49.984;8.404;2023-08-06T03:31:48;16.60;99.90
13970;DHT22;7057;49.984;8.404;2023-08-06T03:34:16;16.60;99.90
13970;DHT22;7057;49.984;8.404;2023-08-06T03:36:44;16.60;99.90
13970;DHT22;7057;49.984;8.404;2023-08-06T03:39:11;16.60;99.90
13970;DHT22;7057;49.984;8.404;2023-08-06T03:41:40;16.60;99.90
13970;DHT22;7057;49.984;8.404;2023-08-06T03:44:07;16.50;99.90
13970;DHT22;7057;49.984;8.404;2023-08-06T03:46:34;16.50;99.90
13970;DHT22;7057;49.984;8.404;2023-08-06T03:49:01;16.50;99.90
13970;DHT22;7057;49.984;8.404;2023-08-06T03:51:29;16.50;99.90
13970;DHT22;7057;49.984;8.404;2023-08-06T03:53:57;16.50;99.90
13970;DHT22;7057;49.984;8.404;2023-08-06T03:56:24;16.50;99.90
13970;DHT22;7057;49.984;8.404;2023-08-06T03:58:51;16.50;99.90
13970;DHT22;7057;49.984;8.404;2023-08-06T04:01:18;16.50;99.90
13970;DHT22;7057;49.984;8.404;2023-08-06T04:03:46;16.50;99.90
13970;DHT22;7057;49.984;8.404;2023-08-06T04:06:13;16.50;99.90
13970;DHT22;7057;49.984;8.404;2023-08-06T04:08:40;16.50;99.90
13970;DHT22;7057;49.984;8.404;2023-08-06T04:11:08;16.50;99.90
13970;DHT22;7057;49.984;8.404;2023-08-06T04:13:36;16.50;99.90
13970;DHT22;7057;49.984;8.404;2023-08-06T04:16:03;16.50;99.90
13970;DHT22;7057;49.984;8.404;2023-08-06T04:18:31;16.50;99.90
13970;DHT22;7057;49.984;8.404;2023-08-06T04:20:58;16.50;99.90
13970;DHT22;7057;49.984;8.404;2023-08-06T04:23:25;16.50;99.90
13970;DHT22;7057;49.984;8.404;2023-08-06T04:25:56;16.50;99.90
13970;DHT22;7057;49.984;8.404;2023-08-06T04:28:25;16.50;99.90
13970;DHT22;7057;49.984;8.404;2023-08-06T04:30:52;16.50;99.90
13970;DHT22;7057;49.984;8.404;2023-08-06T04:33:20;16.60;99.90
13970;DHT22;7057;49.984;8.404;2023-08-06T04:35:47;16.60;99.90
13970;DHT22;7057;49.984;8.404;2023-08-06T04:38:14;16.60;99.90
13970;DHT22;7057;49.984;8.404;2023-08-06T04:40:42;16.50;99.90
13970;DHT22;7057;49.984;8.404;2023-08-06T04:43:09;16.50;99.90
13970;DHT22;7057;49.984;8.404;2023-08-06T04:45:37;16.40;99.90
13970;DHT22;7057;49.984;8.404;2023-08-06T04:48:04;16.50;99.90
13970;DHT22;7057;49.984;8.404;2023-08-06T04:50:32;16.50;99.90
13970;DHT22;7057;49.984;8.404;2023-08-06T04:52:59;16.50;99.90
13970;DHT22;7057;49.984;8.404;2023-08-06T04:55:26;16.50;99.90
13970;DHT22;7057;49.984;8.404;2023-08-06T04:57:53;16.40;99.90
13970;DHT22;7057;49.984;8.404;2023-08-06T05:00:20;16.40;99.90
13970;DHT22;7057;49.984;8.404;2023-08-06T05:02:49;16.40;99.90
13970;DHT22;7057;49.984;8.404;2023-08-06T05:05:16;16.40;99.90
13970;DHT22;7057;49.984;8.404;2023-08-06T05:07:43;16.40;99.90
13970;DHT22;7057;49.984;8.404;2023-08-06T05:10:10;16.40;99.90
13970;DHT22;7057;49.984;8.404;2023-08-06T05:12:37;16.40;99.90
13970;DHT22;7057;49.984;8.404;2023-08-06T05:15:05;16.40;99.90
13970;DHT22;7057;49.984;8.404;2023-08-06T05:17:32;16.30;99.90
13970;DHT22;7057;49.984;8.404;2023-08-06T05:20:01;16.40;99.90
13970;DHT22;7057;49.984;8.404;2023-08-06T05:22:28;16.40;99.90
13970;DHT22;7057;49.984;8.404;2023-08-06T05:24:56;16.40;99.90
13970;DHT22;7057;49.984;8.404;2023-08-06T05:27:23;16.40;99.90
13970;DHT22;7057;49.984;8.404;2023-08-06T05:29:50;16.40;99.90
13970;DHT22;7057;49.984;8.404;2023-08-06T05:32:21;16.40;99.90
13970;DHT22;7057;49.984;8.404;2023-08-06T05:34:48;16.50;99.90
13970;DHT22;7057;49.984;8.404;2023-08-06T05:37:17;16.60;99.90
13970;DHT22;7057;49.984;8.404;2023-08-06T05:39:44;16.60;99.90
13970;DHT22;7057;49.984;8.404;2023-08-06T05:42:11;16.60;99.90
13970;DHT22;7057;49.984;8.404;2023-08-06T05:44:38;16.70;99.90
13970;DHT22;7057;49.984;8.404;2023-08-06T05:47:05;16.70;99.90
13970;DHT22;7057;49.984;8.404;2023-08-06T05:49:33;16.80;99.90
13970;DHT22;7057;49.984;8.404;2023-08-06T05:52:00;16.80;99.90
13970;DHT22;7057;49.984;8.404;2023-08-06T05:54:30;16.80;99.90
13970;DHT22;7057;49.984;8.404;2023-08-06T05:56:57;16.80;99.90
13970;DHT22;7057;49.984;8.404;2023-08-06T05:59:24;16.80;99.90
13970;DHT22;7057;49.984;8.404;2023-08-06T06:01:51;16.80;99.90
13970;DHT22;7057;49.984;8.404;2023-08-06T06:04:18;16.70;99.90
13970;DHT22;7057;49.984;8.404;2023-08-06T06:06:45;16.70;99.90
13970;DHT22;7057;49.984;8.404;2023-08-06T06:09:12;16.80;99.90
13970;DHT22;7057;49.984;8.404;2023-08-06T06:11:41;16.80;99.90
13970;DHT22;7057;49.984;8.404;2023-08-06T06:14:08;16.80;99.90
13970;DHT22;7057;49.984;8.404;2023-08-06T06:16:35;16.80;99.90
13970;DHT22;7057;49.984;8.404;2023-08-06T06:19:03;16.90;99.90
13970;DHT22;7057;49.984;8.404;2023-08-06T06:21:30;16.80;99.90
13970;DHT22;7057;49.984;8.404;2023-08-06T06:23:57;16.80;99.90
13970;DHT22;7057;49.984;8.404;2023-08-06T06:26:25;16.80;99.90
13970;DHT22;7057;49.984;8.404;2023-08-06T06:28:53;16.70;99.90
13970;DHT22;7057;49.984;8.404;2023-08-06T06:31:20;16.60;99.90
13970;DHT22;7057;49.984;8.404;2023-08-06T06:33:47;16.60;99.90
13970;DHT22;7057;49.984;8.404;2023-08-06T06:36:15;16.60;99.90
13970;DHT22;7057;49.984;8.404;2023-08-06T06:38:42;16.60;99.90
13970;DHT22;7057;49.984;8.404;2023-08-06T06:41:09;16.50;99.90
13970;DHT22;7057;49.984;8.404;2023-08-06T06:43:36;16.50;99.90
13970;DHT22;7057;49.984;8.404;2023-08-06T06:46:07;16.60;99.90
13970;DHT22;7057;49.984;8.404;2023-08-06T06:48:34;16.50;99.90
13970;DHT22;7057;49.984;8.404;2023-08-06T06:51:01;16.60;99.90
13970;DHT22;7057;49.984;8.404;2023-08-06T06:53:29;16.50;99.90
13970;DHT22;7057;49.984;8.404;2023-08-06T06:56:01;16.50;99.90
13970;DHT22;7057;49.984;8.404;2023-08-06T06:58:28;16.60;99.90
13970;DHT22;7057;49.984;8.404;2023-08-06T07:00:55;16.60;99.90
13970;DHT22;7057;49.984;8.404;2023-08-06T07:03:24;16.60;99.90
13970;DHT22;7057;49.984;8.404;2023-08-06T07:05:51;16.70;99.90
13970;DHT22;7057;49.984;8.404;2023-08-06T07:08:18;16.70;99.90
13970;DHT22;7057;49.984;8.404;2023-08-06T07:10:45;16.70;99.90
13970;DHT22;7057;49.984;8.404;2023-08-06T07:13:12;16.80;99.90
13970;DHT22;7057;49.984;8.404;2023-08-06T07:15:40;16.90;99.90
13970;DHT22;7057;49.984;8.404;2023-08-06T07:18:07;17.00;99.90
13970;DHT22;7057;49.984;8.404;2023-08-06T07:20:35;17.00;99.90
13970;DHT22;7057;49.984;8.404;2023-08-06T07:23:02;17.00;99.90
13970;DHT22;7057;49.984;8.404;2023-08-06T07:25:30;16.90;99.90
13970;DHT22;7057;49.984;8.404;2023-08-06T07:27:57;17.00;99.90
13970;DHT22;7057;49.984;8.404;2023-08-06T07:30:24;17.10;99.90
13970;DHT22;7057;49.984;8.404;2023-08-06T07:32:52;17.10;99.90
13970;DHT22;7057;49.984;8.404;2023-08-06T07:35:19;17.20;99.90
13970;DHT22;7057;49.984;8.404;2023-08-06T07:37:48;17.40;99.90
13970;DHT22;7057;49.984;8.404;2023-08-06T07:40:15;17.50;99.90
13970;DHT22;7057;49.984;8.404;2023-08-06T07:42:42;17.70;99.90
13970;DHT22;7057;49.984;8.404;2023-08-06T07:45:10;17.80;99.90
13970;DHT22;7057;49.984;8.404;2023-08-06T07:47:37;17.90;99.90
13970;DHT22;7057;49.984;8.404;2023-08-06T07:50:05;17.90;99.90
13970;DHT22;7057;49.984;8.404;2023-08-06T07:52:32;18.00;99.90
13970;DHT22;7057;49.984;8.404;2023-08-06T07:55:00;18.10;99.90
13970;DHT22;7057;49.984;8.404;2023-08-06T07:57:30;18.40;99.90
13970;DHT22;7057;49.984;8.404;2023-08-06T07:59:58;18.60;99.90
13970;DHT22;7057;49.984;8.404;2023-08-06T08:02:25;18.80;99.90
13970;DHT22;7057;49.984;8.404;2023-08-06T08:04:52;19.00;99.90
13970;DHT22;7057;49.984;8.404;2023-08-06T08:07:20;19.10;99.90
13970;DHT22;7057;49.984;8.404;2023-08-06T08:09:47;19.30;99.90
13970;DHT22;7057;49.984;8.404;2023-08-06T08:12:16;19.40;99.90
13970;DHT22;7057;49.984;8.404;2023-08-06T08:14:44;19.60;99.90
13970;DHT22;7057;49.984;8.404;2023-08-06T08:17:11;19.60;99.90
13970;DHT22;7057;49.984;8.404;2023-08-06T08:19:39;19.70;99.90
13970;DHT22;7057;49.984;8.404;2023-08-06T08:22:06;19.80;99.90
13970;DHT22;7057;49.984;8.404;2023-08-06T08:24:33;19.90;99.90
13970;DHT22;7057;49.984;8.404;2023-08-06T08:27:00;20.20;99.90
13970;DHT22;7057;49.984;8.404;2023-08-06T08:29:29;20.40;99.90
13970;DHT22;7057;49.984;8.404;2023-08-06T08:31:56;20.60;99.90
13970;DHT22;7057;49.984;8.404;2023-08-06T08:34:23;20.80;99.90
13970;DHT22;7057;49.984;8.404;2023-08-06T08:36:50;21.00;99.90
13970;DHT22;7057;49.984;8.404;2023-08-06T08:39:17;20.90;99.90
13970;DHT22;7057;49.984;8.404;2023-08-06T08:41:45;20.70;99.90
13970;DHT22;7057;49.984;8.404;2023-08-06T08:44:13;20.50;99.90
13970;DHT22;7057;49.984;8.404;2023-08-06T08:46:45;20.30;99.90
13970;DHT22;7057;49.984;8.404;2023-08-06T08:49:13;20.30;99.90
13970;DHT22;7057;49.984;8.404;2023-08-06T08:51:40;20.50;99.90
13970;DHT22;7057;49.984;8.404;2023-08-06T08:54:08;20.60;99.90
13970;DHT22;7057;49.984;8.404;2023-08-06T08:56:37;20.60;99.90
13970;DHT22;7057;49.984;8.404;2023-08-06T08:59:04;20.60;99.90
13970;DHT22;7057;49.984;8.404;2023-08-06T09:01:32;20.90;99.90
13970;DHT22;7057;49.984;8.404;2023-08-06T09:04:02;21.00;99.90
13970;DHT22;7057;49.984;8.404;2023-08-06T09:06:30;21.00;99.90
13970;DHT22;7057;49.984;8.404;2023-08-06T09:09:04;20.90;99.90
13970;DHT22;7057;49.984;8.404;2023-08-06T09:11:36;20.70;99.90
13970;DHT22;7057;49.984;8.404;2023-08-06T09:14:06;20.50;99.90
13970;DHT22;7057;49.984;8.404;2023-08-06T09:16:34;20.20;99.90
13970;DHT22;7057;49.984;8.404;2023-08-06T09:19:08;20.00;99.90
13970;DHT22;7057;49.984;8.404;2023-08-06T09:21:37;19.90;99.90
13970;DHT22;7057;49.984;8.404;2023-08-06T09:24:08;19.80;99.90
13970;DHT22;7057;49.984;8.404;2023-08-06T09:26:37;19.80;99.90
13970;DHT22;7057;49.984;8.404;2023-08-06T09:29:05;19.70;99.90
13970;DHT22;7057;49.984;8.404;2023-08-06T09:31:33;19.60;99.90
13970;DHT22;7057;49.984;8.404;2023-08-06T09:34:02;19.50;99.90
13970;DHT22;7057;49.984;8.404;2023-08-06T09:36:31;19.30;99.90
13970;DHT22;7057;49.984;8.404;2023-08-06T09:38:58;19.20;99.90
13970;DHT22;7057;49.984;8.404;2023-08-06T09:41:28;19.10;99.90
13970;DHT22;7057;49.984;8.404;2023-08-06T09:43:55;19.10;99.90
13970;DHT22;7057;49.984;8.404;2023-08-06T09:46:22;19.30;99.90
13970;DHT22;7057;49.984;8.404;2023-08-06T09:48:50;19.50;99.90
13970;DHT22;7057;49.984;8.404;2023-08-06T09:51:17;19.60;99.90
13970;DHT22;7057;49.984;8.404;2023-08-06T09:53:47;19.70;99.90
13970;DHT22;7057;49.984;8.404;2023-08-06T09:56:17;19.80;99.90
13970;DHT22;7057;49.984;8.404;2023-08-06T09:58:47;19.90;99.90
13970;DHT22;7057;49.984;8.404;2023-08-06T10:01:16;20.00;99.90
13970;DHT22;7057;49.984;8.404;2023-08-06T10:03:44;20.20;99.90
13970;DHT22;7057;49.984;8.404;2023-08-06T10:06:13;20.30;99.90
13970;DHT22;7057;49.984;8.404;2023-08-06T10:08:40;20.30;99.90
13970;DHT22;7057;49.984;8.404;2023-08-06T10:11:09;20.20;99.90
13970;DHT22;7057;49.984;8.404;2023-08-06T10:13:38;20.00;99.90
13970;DHT22;7057;49.984;8.404;2023-08-06T10:16:06;20.00;99.90
13970;DHT22;7057;49.984;8.404;2023-08-06T10:18:35;19.90;99.90
13970;DHT22;7057;49.984;8.404;2023-08-06T10:21:07;20.00;99.90
13970;DHT22;7057;49.984;8.404;2023-08-06T10:23:36;20.10;99.90
13970;DHT22;7057;49.984;8.404;2023-08-06T10:26:04;20.20;99.90
13970;DHT22;7057;49.984;8.404;2023-08-06T10:28:36;20.30;99.90
13970;DHT22;7057;49.984;8.404;2023-08-06T10:31:04;20.50;99.90
13970;DHT22;7057;49.984;8.404;2023-08-06T10:33:42;20.60;99.90
13970;DHT22;7057;49.984;8.404;2023-08-06T10:36:10;20.70;99.90
13970;DHT22;7057;49.984;8.404;2023-08-06T10:38:44;20.90;99.90
13970;DHT22;7057;49.984;8.404;2023-08-06T10:41:16;21.20;99.90
13970;DHT22;7057;49.984;8.404;2023-08-06T10:43:47;21.40;99.90
13970;DHT22;7057;49.984;8.404;2023-08-06T10:46:22;21.40;99.90
13970;DHT22;7057;49.984;8.404;2023-08-06T10:48:50;21.50;99.90
13970;DHT22;7057;49.984;8.404;2023-08-06T10:51:18;21.70;99.90
13970;DHT22;7057;49.984;8.404;2023-08-06T10:53:46;21.90;99.90
13970;DHT22;7057;49.984;8.404;2023-08-06T10:56:14;22.00;99.90
13970;DHT22;7057;49.984;8.404;2023-08-06T10:58:42;22.00;99.90
13970;DHT22;7057;49.984;8.404;2023-08-06T11:01:11;21.90;99.90
13970;DHT22;7057;49.984;8.404;2023-08-06T11:03:39;21.70;99.90
13970;DHT22;7057;49.984;8.404;2023-08-06T11:06:07;21.00;99.90
13970;DHT22;7057;49.984;8.404;2023-08-06T11:08:35;20.50;99.90
13970;DHT22;7057;49.984;8.404;2023-08-06T11:11:08;20.10;99.90
13970;DHT22;7057;49.984;8.404;2023-08-06T11:13:37;19.90;99.90
13970;DHT22;7057;49.984;8.404;2023-08-06T11:16:04;19.90;99.90
13970;DHT22;7057;49.984;8.404;2023-08-06T11:18:33;19.80;99.90
13970;DHT22;7057;49.984;8.404;2023-08-06T11:21:01;19.60;99.90
13970;DHT22;7057;49.984;8.404;2023-08-06T11:23:28;19.60;99.90
13970;DHT22;7057;49.984;8.404;2023-08-06T11:25:56;19.60;99.90
13970;DHT22;7057;49.984;8.404;2023-08-06T11:28:24;19.20;99.90
13970;DHT22;7057;49.984;8.404;2023-08-06T11:30:52;19.00;99.90
13970;DHT22;7057;49.984;8.404;2023-08-06T11:33:22;18.80;99.90
13970;DHT22;7057;49.984;8.404;2023-08-06T11:35:53;18.70;99.90
13970;DHT22;7057;49.984;8.404;2023-08-06T11:38:21;18.60;99.90
13970;DHT22;7057;49.984;8.404;2023-08-06T11:40:49;18.40;99.90
13970;DHT22;7057;49.984;8.404;2023-08-06T11:43:19;18.20;99.90
13970;DHT22;7057;49.984;8.404;2023-08-06T11:45:46;18.00;99.90
13970;DHT22;7057;49.984;8.404;2023-08-06T11:48:13;17.90;99.90
13970;DHT22;7057;49.984;8.404;2023-08-06T11:50:41;17.90;99.90
13970;DHT22;7057;49.984;8.404;2023-08-06T11:53:12;17.80;99.90
13970;DHT22;7057;49.984;8.404;2023-08-06T11:55:40;17.70;99.90
13970;DHT22;7057;49.984;8.404;2023-08-06T11:58:07;17.60;99.90
13970;DHT22;7057;49.984;8.404;2023-08-06T12:00:36;17.60;99.90
13970;DHT22;7057;49.984;8.404;2023-08-06T12:03:04;17.60;99.90
13970;DHT22;7057;49.984;8.404;2023-08-06T12:05:32;17.60;99.90
13970;DHT22;7057;49.984;8.404;2023-08-06T12:08:01;17.60;99.90
13970;DHT22;7057;49.984;8.404;2023-08-06T12:10:30;17.60;99.90
13970;DHT22;7057;49.984;8.404;2023-08-06T12:12:58;17.60;99.90
13970;DHT22;7057;49.984;8.404;2023-08-06T12:15:25;17.80;99.90
13970;DHT22;7057;49.984;8.404;2023-08-06T12:17:52;17.90;99.90
13970;DHT22;7057;49.984;8.404;2023-08-06T12:20:19;18.10;99.90
13970;DHT22;7057;49.984;8.404;2023-08-06T12:22:47;18.30;99.90
13970;DHT22;7057;49.984;8.404;2023-08-06T12:25:14;18.50;99.90
13970;DHT22;7057;49.984;8.404;2023-08-06T12:27:43;18.70;99.90
13970;DHT22;7057;49.984;8.404;2023-08-06T12:30:12;19.00;99.90
13970;DHT22;7057;49.984;8.404;2023-08-06T12:32:40;19.20;99.90
13970;DHT22;7057;49.984;8.404;2023-08-06T12:35:08;19.30;99.90
13970;DHT22;7057;49.984;8.404;2023-08-06T12:37:35;19.00;99.90
13970;DHT22;7057;49.984;8.404;2023-08-06T12:40:05;19.00;99.90
13970;DHT22;7057;49.984;8.404;2023-08-06T12:42:32;18.90;99.90
13970;DHT22;7057;49.984;8.404;2023-08-06T12:45:01;18.80;99.90
13970;DHT22;7057;49.984;8.404;2023-08-06T12:47:28;18.60;99.90
13970;DHT22;7057;49.984;8.404;2023-08-06T12:49:55;18.40;99.90
13970;DHT22;7057;49.984;8.404;2023-08-06T12:52:22;18.40;99.90
13970;DHT22;7057;49.984;8.404;2023-08-06T12:54:50;18.40;99.90
13970;DHT22;7057;49.984;8.404;2023-08-06T12:57:17;18.10;99.90
13970;DHT22;7057;49.984;8.404;2023-08-06T12:59:44;18.00;99.90
13970;DHT22;7057;49.984;8.404;2023-08-06T13:02:12;17.90;99.90
13970;DHT22;7057;49.984;8.404;2023-08-06T13:04:39;17.80;99.90
13970;DHT22;7057;49.984;8.404;2023-08-06T13:07:07;17.60;99.90
13970;DHT22;7057;49.984;8.404;2023-08-06T13:09:34;17.40;99.90
13970;DHT22;7057;49.984;8.404;2023-08-06T13:12:01;17.40;99.90
13970;DHT22;7057;49.984;8.404;2023-08-06T13:14:31;17.30;99.90
13970;DHT22;7057;49.984;8.404;2023-08-06T13:16:59;17.30;99.90
13970;DHT22;7057;49.984;8.404;2023-08-06T13:19:27;17.20;99.90
13970;DHT22;7057;49.984;8.404;2023-08-06T13:22:02;17.10;99.90
13970;DHT22;7057;49.984;8.404;2023-08-06T13:24:31;17.20;99.90
13970;DHT22;7057;49.984;8.404;2023-08-06T13:26:58;17.20;99.90
13970;DHT22;7057;49.984;8.404;2023-08-06T13:29:26;17.20;99.90
13970;DHT22;7057;49.984;8.404;2023-08-06T13:31:53;17.20;99.90
13970;DHT22;7057;49.984;8.404;2023-08-06T13:34:21;17.10;99.90
13970;DHT22;7057;49.984;8.404;2023-08-06T13:36:49;17.10;99.90
13970;DHT22;7057;49.984;8.404;2023-08-06T13:39:16;17.10;99.90
13970;DHT22;7057;49.984;8.404;2023-08-06T13:41:44;17.10;99.90
13970;DHT22;7057;49.984;8.404;2023-08-06T13:44:11;17.10;99.90
13970;DHT22;7057;49.984;8.404;2023-08-06T13:46:40;17.10;99.90
13970;DHT22;7057;49.984;8.404;2023-08-06T13:49:08;17.10;99.90
13970;DHT22;7057;49.984;8.404;2023-08-06T13:51:35;17.10;99.90
13970;DHT22;7057;49.984;8.404;2023-08-06T13:54:04;17.10;99.90
13970;DHT22;7057;49.984;8.404;2023-08-06T13:56:32;17.10;99.90
13970;DHT22;7057;49.984;8.404;2023-08-06T13:58:59;17.20;99.90
13970;DHT22;7057;49.984;8.404;2023-08-06T14:01:27;17.10;99.90
13970;DHT22;7057;49.984;8.404;2023-08-06T14:03:54;17.10;99.90
13970;DHT22;7057;49.984;8.404;2023-08-06T14:06:21;17.10;99.90
13970;DHT22;7057;49.984;8.404;2023-08-06T14:08:48;17.20;99.90
13970;DHT22;7057;49.984;8.404;2023-08-06T14:11:17;17.30;99.90
13970;DHT22;7057;49.984;8.404;2023-08-06T14:13:44;17.40;99.90
13970;DHT22;7057;49.984;8.404;2023-08-06T14:16:11;17.50;99.90
13970;DHT22;7057;49.984;8.404;2023-08-06T14:18:39;17.60;99.90
13970;DHT22;7057;49.984;8.404;2023-08-06T14:21:07;17.70;99.90
13970;DHT22;7057;49.984;8.404;2023-08-06T14:23:34;17.80;99.90
13970;DHT22;7057;49.984;8.404;2023-08-06T14:26:02;17.90;99.90
13970;DHT22;7057;49.984;8.404;2023-08-06T14:28:30;17.90;99.90
13970;DHT22;7057;49.984;8.404;2023-08-06T14:30:57;18.00;99.90
13970;DHT22;7057;49.984;8.404;2023-08-06T14:33:25;17.90;99.90
13970;DHT22;7057;49.984;8.404;2023-08-06T14:35:52;17.90;99.90
13970;DHT22;7057;49.984;8.404;2023-08-06T14:38:19;17.90;99.90
13970;DHT22;7057;49.984;8.404;2023-08-06T14:40:46;17.90;99.90
13970;DHT22;7057;49.984;8.404;2023-08-06T14:43:13;17.90;99.90
13970;DHT22;7057;49.984;8.404;2023-08-06T14:45:42;17.80;99.90
13970;DHT22;7057;49.984;8.404;2023-08-06T14:48:09;17.70;99.90
13970;DHT22;7057;49.984;8.404;2023-08-06T14:50:36;17.80;99.90
13970;DHT22;7057;49.984;8.404;2023-08-06T14:53:05;17.70;99.90
13970;DHT22;7057;49.984;8.404;2023-08-06T14:55:32;17.70;99.90
13970;DHT22;7057;49.984;8.404;2023-08-06T14:58:00;17.70;99.90
13970;DHT22;7057;49.984;8.404;2023-08-06T15:00:28;17.70;99.90
13970;DHT22;7057;49.984;8.404;2023-08-06T15:02:56;17.70;99.90
13970;DHT22;7057;49.984;8.404;2023-08-06T15:05:24;17.70;99.90
13970;DHT22;7057;49.984;8.404;2023-08-06T15:07:51;17.60;99.90
13970;DHT22;7057;49.984;8.404;2023-08-06T15:10:19;17.60;99.90
13970;DHT22;7057;49.984;8.404;2023-08-06T15:12:46;17.60;99.90
13970;DHT22;7057;49.984;8.404;2023-08-06T15:15:13;17.60;99.90
13970;DHT22;7057;49.984;8.404;2023-08-06T15:17:41;17.50;99.90
13970;DHT22;7057;49.984;8.404;2023-08-06T15:20:11;17.50;99.90
13970;DHT22;7057;49.984;8.404;2023-08-06T15:22:39;17.50;99.90
13970;DHT22;7057;49.984;8.404;2023-08-06T15:25:06;17.50;99.90
13970;DHT22;7057;49.984;8.404;2023-08-06T15:27:33;17.60;99.90
13970;DHT22;7057;49.984;8.404;2023-08-06T15:30:01;17.60;99.90
13970;DHT22;7057;49.984;8.404;2023-08-06T15:32:28;17.60;99.90
13970;DHT22;7057;49.984;8.404;2023-08-06T15:34:55;17.50;99.90
13970;DHT22;7057;49.984;8.404;2023-08-06T15:37:24;17.50;99.90
13970;DHT22;7057;49.984;8.404;2023-08-06T15:39:51;17.50;99.90
13970;DHT22;7057;49.984;8.404;2023-08-06T15:42:19;17.40;99.90
13970;DHT22;7057;49.984;8.404;2023-08-06T15:44:46;17.40;99.90
13970;DHT22;7057;49.984;8.404;2023-08-06T15:47:13;17.50;99.90
13970;DHT22;7057;49.984;8.404;2023-08-06T15:49:41;17.40;99.90